Weather reports worldwide

Advertisment
Karlsruhe/Baden-Baden, Germany (10722): temperature & dewpoint: 20.09.2018 17:00:00 - 26.09.2018 17:00:00 (CEST)Karlsruhe/Baden-Baden, Germany (10722): wind speed: 20.09.2018 17:00:00 - 26.09.2018 17:00:00 (CEST)Karlsruhe/Baden-Baden, Germany (10722): wind direction: 20.09.2018 17:00:00 - 26.09.2018 17:00:00 (CEST)Karlsruhe/Baden-Baden, Germany (10722): visibility: 20.09.2018 17:00:00 - 26.09.2018 17:00:00 (CEST)
Date & Time tt [°C] td [°C] ff [km/h] ff [kn] dd vv [km]
26.09.2018 17:00:00 19,0 3,0 8 4 - 10
26.09.2018 16:00:00 18,0 3,0 5 3 - 10
26.09.2018 15:00:00 17,0 4,0 8 4 NNW 10
26.09.2018 14:00:00 15,0 4,0 5 3 - 10
26.09.2018 13:00:00 15,0 3,0 5 3 NW 10
26.09.2018 12:00:00 12,0 4,0 4 2 - 10
26.09.2018 11:00:00 10,0 4,0 4 2 - 10
26.09.2018 10:00:00 7,0 4,0 4 2 - 10
26.09.2018 09:00:00 5,0 3,0 4 2 - 10
26.09.2018 08:00:00 1,0 0,0 4 2 - 10
26.09.2018 07:00:00 1,0 1,0 4 2 - 10
26.09.2018 06:00:00 2,0 1,0 4 2 - 10
26.09.2018 05:00:00 3,0 1,0 4 2 NNE 10
26.09.2018 04:00:00 - - - - - -
26.09.2018 03:00:00 - - - - - -
26.09.2018 02:00:00 - - - - - -
26.09.2018 01:00:00 - - - - - -
26.09.2018 00:00:00 - - - - - -
25.09.2018 23:00:00 9,0 2,0 15 8 NE 10
25.09.2018 22:00:00 10,0 3,0 21 11 NE 10
25.09.2018 21:00:00 10,0 3,0 16 9 NNE 10
25.09.2018 20:00:00 11,0 2,0 15 8 NNE 10
25.09.2018 19:00:00 15,0 1,0 18 10 NE 10
25.09.2018 18:00:00 16,0 0,0 22 12 NE 10
25.09.2018 17:00:00 17,0 -1,0 28 15 NE 10
25.09.2018 16:00:00 17,0 -1,0 28 15 NE 10
25.09.2018 15:00:00 17,0 -1,0 28 15 NE 10
25.09.2018 14:00:00 16,0 0,0 28 15 NE 10
25.09.2018 13:00:00 16,0 2,0 22 12 NE 10
25.09.2018 12:00:00 14,0 2,0 24 13 NE 10
25.09.2018 11:00:00 13,0 4,0 21 11 NNE 10
25.09.2018 10:00:00 10,0 6,0 18 10 NNE 10
25.09.2018 09:00:00 8,0 6,0 16 9 NE 10
25.09.2018 08:00:00 6,0 5,0 9 5 NE 10
25.09.2018 07:00:00 5,0 4,0 13 7 NNE 10
25.09.2018 06:00:00 5,0 4,0 11 6 NNE 10
25.09.2018 05:00:00 - - - - - -
25.09.2018 04:00:00 6,0 5,0 11 6 NNE 10
25.09.2018 03:00:00 7,0 5,0 5 3 NNE 10
25.09.2018 02:00:00 8,0 5,0 13 7 NE 10
25.09.2018 01:00:00 9,0 6,0 5 3 NNE 10
25.09.2018 00:00:00 10,0 6,0 8 4 NNE 10
24.09.2018 23:00:00 10,0 7,0 4 2 N 10
24.09.2018 22:00:00 9,0 4,0 0 0 N 10
24.09.2018 21:00:00 9,0 4,0 4 2 - 10
24.09.2018 20:00:00 12,0 3,0 4 2 - 10
24.09.2018 19:00:00 15,0 2,0 9 5 N 10
24.09.2018 18:00:00 16,0 2,0 5 3 - 10
24.09.2018 17:00:00 16,0 2,0 13 7 NNE 10
24.09.2018 16:00:00 16,0 2,0 11 6 N 10
24.09.2018 15:00:00 16,0 3,0 15 8 NE 10
24.09.2018 14:00:00 15,0 3,0 13 7 N 10
24.09.2018 13:00:00 15,0 4,0 9 5 - 10
24.09.2018 12:00:00 14,0 6,0 8 4 NNE 10
24.09.2018 11:00:00 13,0 7,0 11 6 N 10
24.09.2018 10:00:00 11,0 7,0 5 3 NNW 10
24.09.2018 09:00:00 9,0 7,0 0 0 N 10
24.09.2018 08:00:00 6,0 5,0 2 1 - 10
24.09.2018 07:00:00 8,0 7,0 5 3 NNW 10
24.09.2018 06:00:00 10,0 6,0 5 3 NNW 10
24.09.2018 05:00:00 10,0 7,0 4 2 NW 10
24.09.2018 04:00:00 10,0 7,0 0 0 N 10
24.09.2018 03:00:00 10,0 7,0 11 6 NNE 10
24.09.2018 02:00:00 11,0 7,0 13 7 N 10
24.09.2018 01:00:00 12,0 8,0 15 8 NNW 10
24.09.2018 00:00:00 12,0 10,0 8 4 NNW 10
23.09.2018 23:00:00 13,0 10,0 9 5 NW 10
23.09.2018 22:00:00 14,0 11,0 15 8 NNW 10
23.09.2018 21:00:00 15,0 14,0 13 7 WNW 10
23.09.2018 20:00:00 16,0 16,0 9 5 SW 9
23.09.2018 19:00:00 16,0 16,0 22 12 W 3,5
23.09.2018 18:00:00 24,0 16,0 37 20 SW 10
23.09.2018 17:00:00 24,0 16,0 46 25 SW 10
23.09.2018 16:00:00 24,0 16,0 46 25 SW 10
23.09.2018 15:00:00 24,0 16,0 39 21 SW 10
23.09.2018 14:00:00 23,0 16,0 42 23 SW 10
23.09.2018 13:00:00 22,0 16,0 31 17 SSW 10
23.09.2018 12:00:00 21,0 16,0 26 14 SSW 10
23.09.2018 11:00:00 18,0 15,0 22 12 SSW 10
23.09.2018 10:00:00 19,0 14,0 28 15 SSW 9
23.09.2018 09:00:00 19,0 13,0 31 17 SSW 10
23.09.2018 08:00:00 18,0 13,0 24 13 SSW 10
23.09.2018 07:00:00 16,0 13,0 15 8 SSW 10
23.09.2018 06:00:00 16,0 11,0 21 11 SSW 10
23.09.2018 05:00:00 15,0 11,0 11 6 SSW 10
23.09.2018 04:00:00 14,0 10,0 5 3 SW 9
23.09.2018 03:00:00 15,0 9,0 8 4 SW 10
23.09.2018 02:00:00 13,0 11,0 5 3 NE 10
23.09.2018 01:00:00 13,0 10,0 4 2 - 10
23.09.2018 00:00:00 15,0 8,0 15 8 SSW 10
22.09.2018 23:00:00 13,0 11,0 9 5 SSW 10
22.09.2018 22:00:00 14,0 10,0 11 6 SE 10
22.09.2018 21:00:00 15,0 9,0 4 2 - 9
22.09.2018 20:00:00 16,0 8,0 0 0 N 10
22.09.2018 19:00:00 17,0 6,0 4 2 - 10
22.09.2018 18:00:00 18,0 4,0 8 4 WSW 10
22.09.2018 17:00:00 19,0 5,0 8 4 W 10
22.09.2018 16:00:00 18,0 5,0 18 10 SW 10
22.09.2018 15:00:00 17,0 5,0 11 6 W 10
22.09.2018 14:00:00 17,0 6,0 11 6 SW 10
22.09.2018 13:00:00 16,0 8,0 15 8 SSW 10
22.09.2018 12:00:00 16,0 9,0 11 6 WSW 10
22.09.2018 11:00:00 15,0 10,0 16 9 SSW 10
22.09.2018 10:00:00 14,0 10,0 13 7 SSW 10
22.09.2018 09:00:00 11,0 10,0 8 4 SSW 10
22.09.2018 08:00:00 10,0 9,0 9 5 SSW 10
22.09.2018 07:00:00 11,0 9,0 9 5 SW 10
22.09.2018 06:00:00 11,0 9,0 9 5 SSW 10
22.09.2018 05:00:00 11,0 9,0 9 5 SW 10
22.09.2018 04:00:00 12,0 9,0 13 7 SSW 10
22.09.2018 03:00:00 12,0 9,0 16 9 S 10
22.09.2018 02:00:00 12,0 10,0 9 5 SW 10
22.09.2018 01:00:00 12,0 9,0 11 6 SSW 10
22.09.2018 00:00:00 12,0 10,0 9 5 S 10
21.09.2018 23:00:00 13,0 11,0 18 10 S 10
21.09.2018 22:00:00 13,0 11,0 16 9 S 10
21.09.2018 21:00:00 12,0 11,0 13 7 SW 10
21.09.2018 20:00:00 13,0 11,0 15 8 SSW 10
21.09.2018 19:00:00 13,0 12,0 22 12 S 10
21.09.2018 18:00:00 13,0 12,0 15 8 WSW 7
21.09.2018 17:00:00 17,0 14,0 26 14 W 10
21.09.2018 16:00:00 25,0 9,0 22 12 SW 10
21.09.2018 15:00:00 25,0 8,0 18 10 WSW 10
21.09.2018 14:00:00 26,0 13,0 21 11 WSW 10
21.09.2018 13:00:00 25,0 14,0 18 10 SW 10
21.09.2018 12:00:00 25,0 14,0 26 14 SW 10
21.09.2018 11:00:00 26,0 13,0 34 18 SSW 10
21.09.2018 10:00:00 22,0 14,0 16 9 SW 10
21.09.2018 09:00:00 20,0 14,0 16 9 SW 10
21.09.2018 08:00:00 17,0 14,0 9 5 SW 10
21.09.2018 07:00:00 15,0 13,0 11 6 SW 10
21.09.2018 06:00:00 14,0 12,0 4 2 - 10
21.09.2018 05:00:00 15,0 13,0 8 4 SSW 10
21.09.2018 04:00:00 15,0 12,0 5 3 SE 10
21.09.2018 03:00:00 14,0 12,0 8 4 SW 10
21.09.2018 02:00:00 14,0 12,0 0 0 N 10
21.09.2018 01:00:00 15,0 13,0 0 0 N 10
21.09.2018 00:00:00 16,0 13,0 0 0 N 10
20.09.2018 23:00:00 17,0 13,0 2 1 - 10
20.09.2018 22:00:00 19,0 13,0 0 0 N 10
20.09.2018 21:00:00 20,0 13,0 2 1 - 10
20.09.2018 20:00:00 23,0 13,0 0 0 N 10
20.09.2018 19:00:00 28,0 12,0 4 2 W 10
20.09.2018 18:00:00 29,0 9,0 5 3 W 10
20.09.2018 17:00:00 30,0 10,0 11 6 W 10

tt = temperature
td = dewpoint
ff = wind speed
dd = wind direction
vv = visibility

Next stations